Инчоун

Карта отелей и гостиниц, располагающихся рядом с аэропортом Инчоун :

Инчоун Чукотский автономный округ 66° 18' 9.2988" N, 170° 18' 36.4788" W
Инчоун Чукотский автономный округ 66° 18' 9.2988" N, 170° 18' 36.4788" W
Код аэродрома ИКАО
UHAJ
Код аэродрома RU
УХАЙ
Координаты
N66.30258° W170.31013°
Превышение над уровнем моря
6
Основная полоса
10/28
Курс магнитный
102,9/282,9
Длина основной ВПП
860
Ширина основной ВПП
65
Покрытие основной ВПП
Нетвёрдое (грунт)
Освещение ВПП
Нет
Тип: 
Аэродром
Класс аэродрома: 
Принадлежность: 
ГА
Статус: 
Недействующий
Сайт: 
E-mail аэродрома: 
Страна: 
Россия
Регион: 
Чукотский автономный округ
Город: 
Дополнительная информация: 

Найти трансфер

С помощью этой формы Вы можете найти трансфер из аэропорта Инчоун в город, аэропорт или вокзал:

Карта места

Javascript is required to view this map.

Погода в аэропортах:

Авиационная погода в Борисполе

Регион: 
Погода METAR: 
UKBB 281300Z 12005MPS 0750 0500W R36R/1000D R36L/0900D PRFG OVC001 04/04 Q1003 TEMPO 0300 FG VV001
Время наблюдения
2021-11-28T13:00:00Z
Температура C
4.0
Точка росы
4.0
Направление ветра
120
Скорость ветра (узлы)
10
Метео видимость
0.47
Явления погоды
PRFG
Условия полета
LIFR
Аэропорт подробнее: 

Авиационная погода в Воронеже

Регион: 
Погода METAR: 
UUOO 281300Z 13002MPS 0250 0200NE R12/0550N FG VV000 06/06 Q1009 R12/290155 NOSIG RMK QBB020 QFE743
Время наблюдения
2021-11-28T13:00:00Z
Температура C
6.0
Точка росы
6.0
Направление ветра
130
Скорость ветра (узлы)
4
Метео видимость
0.16
Явления погоды
FG
Условия полета
LIFR
Аэропорт подробнее: 

Авиационная погода в Пулково

Регион: 
Погода METAR: 
ULLI 281300Z 04005MPS 3900 -SHSN SCT009 BKN018CB OVC036 M03/M04 Q1002 RESHSN R88/490535 NOSIG
Время наблюдения
2021-11-28T13:00:00Z
Температура C
-3.0
Точка росы
-4.0
Направление ветра
40
Скорость ветра (узлы)
10
Метео видимость
2.42
Явления погоды
-SHSN
Условия полета
IFR
Аэропорт подробнее: 

Авиационная погода в Москва - Внуково

Погода METAR: 
UUWW 281300Z 22006MPS 9999 -RA BKN007 OVC022 02/01 Q1005 R24/290050 TEMPO BKN004
Время наблюдения
2021-11-28T13:00:00Z
Температура C
2.0
Точка росы
1.0
Направление ветра
220
Скорость ветра (узлы)
12
Метео видимость
6.21
Явления погоды
-RA
Условия полета
IFR
Аэропорт подробнее: